sensor_id;sensor_type;location;lat;lon;timestamp;P1;durP1;ratioP1;P2;durP2;ratioP2
75716;SDS011;64333;50.138;14.332;2023-06-26T00:00:32;8.23;;;7.13;;
75716;SDS011;64333;50.138;14.332;2023-06-26T00:02:57;10.82;;;7.35;;
75716;SDS011;64333;50.138;14.332;2023-06-26T00:05:23;7.88;;;6.05;;
75716;SDS011;64333;50.138;14.332;2023-06-26T00:07:49;8.07;;;6.18;;
75716;SDS011;64333;50.138;14.332;2023-06-26T00:10:14;8.23;;;6.68;;
75716;SDS011;64333;50.138;14.332;2023-06-26T00:12:39;10.40;;;7.00;;
75716;SDS011;64333;50.138;14.332;2023-06-26T00:15:05;9.27;;;7.38;;
75716;SDS011;64333;50.138;14.332;2023-06-26T00:17:33;9.60;;;6.97;;
75716;SDS011;64333;50.138;14.332;2023-06-26T00:20:02;10.20;;;7.40;;
75716;SDS011;64333;50.138;14.332;2023-06-26T00:22:28;8.50;;;6.72;;
75716;SDS011;64333;50.138;14.332;2023-06-26T00:24:53;9.65;;;7.80;;
75716;SDS011;64333;50.138;14.332;2023-06-26T00:27:18;8.02;;;6.60;;
75716;SDS011;64333;50.138;14.332;2023-06-26T00:29:44;9.95;;;7.50;;
75716;SDS011;64333;50.138;14.332;2023-06-26T00:32:09;10.50;;;7.70;;
75716;SDS011;64333;50.138;14.332;2023-06-26T00:34:34;8.65;;;6.82;;
75716;SDS011;64333;50.138;14.332;2023-06-26T00:37:00;9.88;;;7.55;;
75716;SDS011;64333;50.138;14.332;2023-06-26T00:39:25;8.93;;;7.82;;
75716;SDS011;64333;50.138;14.332;2023-06-26T00:41:51;8.93;;;6.90;;
75716;SDS011;64333;50.138;14.332;2023-06-26T00:44:18;7.88;;;6.60;;
75716;SDS011;64333;50.138;14.332;2023-06-26T00:46:44;8.32;;;6.85;;
75716;SDS011;64333;50.138;14.332;2023-06-26T00:49:10;9.98;;;6.72;;
75716;SDS011;64333;50.138;14.332;2023-06-26T00:51:35;7.63;;;6.80;;
75716;SDS011;64333;50.138;14.332;2023-06-26T00:54:01;8.25;;;6.68;;
75716;SDS011;64333;50.138;14.332;2023-06-26T00:56:27;7.15;;;5.93;;
75716;SDS011;64333;50.138;14.332;2023-06-26T00:58:53;8.88;;;7.22;;
75716;SDS011;64333;50.138;14.332;2023-06-26T01:01:18;9.57;;;6.45;;
75716;SDS011;64333;50.138;14.332;2023-06-26T01:03:47;8.93;;;7.13;;
75716;SDS011;64333;50.138;14.332;2023-06-26T01:06:17;8.07;;;6.97;;
75716;SDS011;64333;50.138;14.332;2023-06-26T01:08:43;9.20;;;7.50;;
75716;SDS011;64333;50.138;14.332;2023-06-26T01:11:10;9.90;;;7.55;;
75716;SDS011;64333;50.138;14.332;2023-06-26T01:13:36;9.30;;;7.93;;
75716;SDS011;64333;50.138;14.332;2023-06-26T01:16:02;9.13;;;7.95;;
75716;SDS011;64333;50.138;14.332;2023-06-26T01:18:29;10.18;;;8.38;;
75716;SDS011;64333;50.138;14.332;2023-06-26T01:20:55;9.57;;;8.02;;
75716;SDS011;64333;50.138;14.332;2023-06-26T01:23:35;8.65;;;7.00;;
75716;SDS011;64333;50.138;14.332;2023-06-26T01:28:33;8.55;;;7.22;;
75716;SDS011;64333;50.138;14.332;2023-06-26T01:31:00;8.95;;;7.20;;
75716;SDS011;64333;50.138;14.332;2023-06-26T01:33:27;8.60;;;7.10;;
75716;SDS011;64333;50.138;14.332;2023-06-26T01:35:53;8.55;;;7.20;;
75716;SDS011;64333;50.138;14.332;2023-06-26T01:38:20;7.88;;;7.00;;
75716;SDS011;64333;50.138;14.332;2023-06-26T01:40:48;7.80;;;6.75;;
75716;SDS011;64333;50.138;14.332;2023-06-26T01:45:59;10.38;;;7.10;;
75716;SDS011;64333;50.138;14.332;2023-06-26T01:49:00;7.15;;;6.30;;
75716;SDS011;64333;50.138;14.332;2023-06-26T01:51:31;8.40;;;6.78;;
75716;SDS011;64333;50.138;14.332;2023-06-26T01:54:01;7.68;;;6.40;;
75716;SDS011;64333;50.138;14.332;2023-06-26T01:56:28;8.05;;;6.30;;
75716;SDS011;64333;50.138;14.332;2023-06-26T01:58:54;8.55;;;6.60;;
75716;SDS011;64333;50.138;14.332;2023-06-26T02:01:21;8.23;;;6.80;;
75716;SDS011;64333;50.138;14.332;2023-06-26T02:03:47;7.85;;;6.35;;
75716;SDS011;64333;50.138;14.332;2023-06-26T02:06:13;10.65;;;7.38;;
75716;SDS011;64333;50.138;14.332;2023-06-26T02:08:39;9.23;;;7.85;;
75716;SDS011;64333;50.138;14.332;2023-06-26T02:11:05;9.90;;;7.32;;
75716;SDS011;64333;50.138;14.332;2023-06-26T02:13:30;8.40;;;7.43;;
75716;SDS011;64333;50.138;14.332;2023-06-26T02:15:55;8.70;;;7.07;;
75716;SDS011;64333;50.138;14.332;2023-06-26T02:18:22;8.85;;;6.93;;
75716;SDS011;64333;50.138;14.332;2023-06-26T02:20:48;10.75;;;6.82;;
75716;SDS011;64333;50.138;14.332;2023-06-26T02:23:14;8.38;;;6.70;;
75716;SDS011;64333;50.138;14.332;2023-06-26T02:25:39;10.57;;;7.28;;
75716;SDS011;64333;50.138;14.332;2023-06-26T02:28:05;8.18;;;7.05;;
75716;SDS011;64333;50.138;14.332;2023-06-26T02:30:30;8.95;;;7.55;;
75716;SDS011;64333;50.138;14.332;2023-06-26T02:32:55;11.27;;;8.25;;
75716;SDS011;64333;50.138;14.332;2023-06-26T02:35:21;7.90;;;6.95;;
75716;SDS011;64333;50.138;14.332;2023-06-26T02:37:46;8.35;;;7.30;;
75716;SDS011;64333;50.138;14.332;2023-06-26T02:40:11;8.02;;;6.38;;
75716;SDS011;64333;50.138;14.332;2023-06-26T02:42:37;8.60;;;7.63;;
75716;SDS011;64333;50.138;14.332;2023-06-26T02:45:02;9.95;;;8.18;;
75716;SDS011;64333;50.138;14.332;2023-06-26T02:47:28;11.23;;;7.95;;
75716;SDS011;64333;50.138;14.332;2023-06-26T02:49:53;10.27;;;6.90;;
75716;SDS011;64333;50.138;14.332;2023-06-26T02:52:18;9.57;;;7.30;;
75716;SDS011;64333;50.138;14.332;2023-06-26T02:54:44;10.32;;;7.18;;
75716;SDS011;64333;50.138;14.332;2023-06-26T02:57:09;9.88;;;7.10;;
75716;SDS011;64333;50.138;14.332;2023-06-26T02:59:35;10.45;;;6.28;;
75716;SDS011;64333;50.138;14.332;2023-06-26T03:02:00;10.80;;;7.78;;
75716;SDS011;64333;50.138;14.332;2023-06-26T03:04:26;10.57;;;7.82;;
75716;SDS011;64333;50.138;14.332;2023-06-26T03:06:51;9.50;;;7.65;;
75716;SDS011;64333;50.138;14.332;2023-06-26T03:09:16;9.52;;;7.10;;
75716;SDS011;64333;50.138;14.332;2023-06-26T03:11:42;8.77;;;7.00;;
75716;SDS011;64333;50.138;14.332;2023-06-26T03:14:08;10.90;;;8.20;;
75716;SDS011;64333;50.138;14.332;2023-06-26T03:16:33;10.32;;;7.38;;
75716;SDS011;64333;50.138;14.332;2023-06-26T03:18:59;10.50;;;7.82;;
75716;SDS011;64333;50.138;14.332;2023-06-26T03:21:24;9.60;;;8.02;;
75716;SDS011;64333;50.138;14.332;2023-06-26T03:23:49;10.90;;;7.63;;
75716;SDS011;64333;50.138;14.332;2023-06-26T03:26:15;11.75;;;7.70;;
75716;SDS011;64333;50.138;14.332;2023-06-26T03:28:40;10.10;;;7.88;;
75716;SDS011;64333;50.138;14.332;2023-06-26T03:31:07;9.88;;;7.32;;
75716;SDS011;64333;50.138;14.332;2023-06-26T03:33:32;9.45;;;7.43;;
75716;SDS011;64333;50.138;14.332;2023-06-26T03:35:58;9.90;;;8.15;;
75716;SDS011;64333;50.138;14.332;2023-06-26T03:38:24;9.52;;;7.70;;
75716;SDS011;64333;50.138;14.332;2023-06-26T03:40:50;7.47;;;6.63;;
75716;SDS011;64333;50.138;14.332;2023-06-26T03:43:16;9.45;;;7.03;;
75716;SDS011;64333;50.138;14.332;2023-06-26T03:45:41;9.93;;;7.88;;
75716;SDS011;64333;50.138;14.332;2023-06-26T03:48:06;8.20;;;7.07;;
75716;SDS011;64333;50.138;14.332;2023-06-26T03:50:36;11.57;;;6.68;;
75716;SDS011;64333;50.138;14.332;2023-06-26T03:53:01;10.05;;;7.82;;
75716;SDS011;64333;50.138;14.332;2023-06-26T03:55:26;9.35;;;7.07;;
75716;SDS011;64333;50.138;14.332;2023-06-26T03:57:52;8.77;;;7.57;;
75716;SDS011;64333;50.138;14.332;2023-06-26T04:00:17;11.20;;;6.63;;
75716;SDS011;64333;50.138;14.332;2023-06-26T04:02:43;8.93;;;7.57;;
75716;SDS011;64333;50.138;14.332;2023-06-26T04:05:08;7.95;;;6.90;;
75716;SDS011;64333;50.138;14.332;2023-06-26T04:07:34;8.45;;;7.30;;
75716;SDS011;64333;50.138;14.332;2023-06-26T04:10:00;9.63;;;7.30;;
75716;SDS011;64333;50.138;14.332;2023-06-26T04:12:27;8.90;;;6.75;;
75716;SDS011;64333;50.138;14.332;2023-06-26T04:14:52;7.00;;;6.30;;
75716;SDS011;64333;50.138;14.332;2023-06-26T04:17:18;8.10;;;6.85;;
75716;SDS011;64333;50.138;14.332;2023-06-26T04:19:43;9.73;;;7.22;;
75716;SDS011;64333;50.138;14.332;2023-06-26T04:22:08;9.85;;;6.93;;
75716;SDS011;64333;50.138;14.332;2023-06-26T04:24:34;9.40;;;7.60;;
75716;SDS011;64333;50.138;14.332;2023-06-26T04:26:59;11.90;;;8.68;;
75716;SDS011;64333;50.138;14.332;2023-06-26T04:29:25;11.38;;;8.77;;
75716;SDS011;64333;50.138;14.332;2023-06-26T04:31:52;8.57;;;6.90;;
75716;SDS011;64333;50.138;14.332;2023-06-26T04:34:17;8.18;;;7.35;;
75716;SDS011;64333;50.138;14.332;2023-06-26T04:36:43;9.73;;;7.65;;
75716;SDS011;64333;50.138;14.332;2023-06-26T04:39:13;9.10;;;7.82;;
75716;SDS011;64333;50.138;14.332;2023-06-26T04:41:40;10.50;;;7.55;;
75716;SDS011;64333;50.138;14.332;2023-06-26T04:44:05;11.05;;;7.15;;
75716;SDS011;64333;50.138;14.332;2023-06-26T04:46:31;10.50;;;7.95;;
75716;SDS011;64333;50.138;14.332;2023-06-26T04:48:56;12.98;;;8.23;;
75716;SDS011;64333;50.138;14.332;2023-06-26T04:51:23;10.13;;;8.60;;
75716;SDS011;64333;50.138;14.332;2023-06-26T04:53:52;12.57;;;8.82;;
75716;SDS011;64333;50.138;14.332;2023-06-26T04:56:17;10.15;;;8.02;;
75716;SDS011;64333;50.138;14.332;2023-06-26T04:58:43;11.77;;;8.95;;
75716;SDS011;64333;50.138;14.332;2023-06-26T05:01:08;11.30;;;9.10;;
75716;SDS011;64333;50.138;14.332;2023-06-26T05:03:33;11.23;;;8.77;;
75716;SDS011;64333;50.138;14.332;2023-06-26T05:05:59;11.30;;;8.40;;
75716;SDS011;64333;50.138;14.332;2023-06-26T05:08:26;10.23;;;8.63;;
75716;SDS011;64333;50.138;14.332;2023-06-26T05:10:51;8.98;;;7.63;;
75716;SDS011;64333;50.138;14.332;2023-06-26T05:13:18;10.07;;;8.00;;
75716;SDS011;64333;50.138;14.332;2023-06-26T05:15:45;10.30;;;9.10;;
75716;SDS011;64333;50.138;14.332;2023-06-26T05:18:11;9.40;;;8.07;;
75716;SDS011;64333;50.138;14.332;2023-06-26T05:20:37;10.60;;;8.10;;
75716;SDS011;64333;50.138;14.332;2023-06-26T05:23:03;11.23;;;8.88;;
75716;SDS011;64333;50.138;14.332;2023-06-26T05:25:29;11.65;;;8.70;;
75716;SDS011;64333;50.138;14.332;2023-06-26T05:27:56;11.00;;;9.68;;
75716;SDS011;64333;50.138;14.332;2023-06-26T05:30:23;11.32;;;10.15;;
75716;SDS011;64333;50.138;14.332;2023-06-26T05:32:50;12.05;;;10.02;;
75716;SDS011;64333;50.138;14.332;2023-06-26T05:35:17;13.75;;;11.02;;
75716;SDS011;64333;50.138;14.332;2023-06-26T05:37:46;13.32;;;10.77;;
75716;SDS011;64333;50.138;14.332;2023-06-26T05:40:13;14.02;;;10.60;;
75716;SDS011;64333;50.138;14.332;2023-06-26T05:42:40;12.10;;;9.85;;
75716;SDS011;64333;50.138;14.332;2023-06-26T05:45:05;12.10;;;10.13;;
75716;SDS011;64333;50.138;14.332;2023-06-26T05:47:31;13.07;;;9.60;;
75716;SDS011;64333;50.138;14.332;2023-06-26T05:49:56;12.95;;;10.30;;
75716;SDS011;64333;50.138;14.332;2023-06-26T05:52:22;13.77;;;10.70;;
75716;SDS011;64333;50.138;14.332;2023-06-26T05:54:48;13.65;;;10.07;;
75716;SDS011;64333;50.138;14.332;2023-06-26T05:57:13;10.35;;;9.15;;
75716;SDS011;64333;50.138;14.332;2023-06-26T05:59:40;11.38;;;8.80;;
75716;SDS011;64333;50.138;14.332;2023-06-26T06:02:08;10.82;;;8.80;;
75716;SDS011;64333;50.138;14.332;2023-06-26T06:04:33;10.68;;;8.18;;
75716;SDS011;64333;50.138;14.332;2023-06-26T06:07:00;9.73;;;8.20;;
75716;SDS011;64333;50.138;14.332;2023-06-26T06:09:25;8.85;;;7.95;;
75716;SDS011;64333;50.138;14.332;2023-06-26T06:11:51;10.77;;;8.80;;
75716;SDS011;64333;50.138;14.332;2023-06-26T06:14:16;10.18;;;8.48;;
75716;SDS011;64333;50.138;14.332;2023-06-26T06:16:42;10.32;;;7.57;;
75716;SDS011;64333;50.138;14.332;2023-06-26T06:19:07;10.32;;;8.35;;
75716;SDS011;64333;50.138;14.332;2023-06-26T06:21:36;10.10;;;8.27;;
75716;SDS011;64333;50.138;14.332;2023-06-26T06:24:01;10.45;;;7.95;;
75716;SDS011;64333;50.138;14.332;2023-06-26T06:26:27;8.23;;;7.35;;
75716;SDS011;64333;50.138;14.332;2023-06-26T06:28:52;8.45;;;7.55;;
75716;SDS011;64333;50.138;14.332;2023-06-26T06:31:17;10.55;;;7.22;;
75716;SDS011;64333;50.138;14.332;2023-06-26T06:33:43;9.00;;;7.18;;
75716;SDS011;64333;50.138;14.332;2023-06-26T06:36:09;6.82;;;6.10;;
75716;SDS011;64333;50.138;14.332;2023-06-26T06:38:34;8.90;;;7.30;;
75716;SDS011;64333;50.138;14.332;2023-06-26T06:40:59;7.20;;;6.07;;
75716;SDS011;64333;50.138;14.332;2023-06-26T06:43:25;8.07;;;7.07;;
75716;SDS011;64333;50.138;14.332;2023-06-26T06:45:50;7.72;;;6.50;;
75716;SDS011;64333;50.138;14.332;2023-06-26T06:48:16;7.70;;;6.57;;
75716;SDS011;64333;50.138;14.332;2023-06-26T06:50:41;7.88;;;6.25;;
75716;SDS011;64333;50.138;14.332;2023-06-26T06:53:07;7.22;;;5.90;;
75716;SDS011;64333;50.138;14.332;2023-06-26T06:55:33;7.65;;;6.28;;
75716;SDS011;64333;50.138;14.332;2023-06-26T06:57:58;6.95;;;5.47;;
75716;SDS011;64333;50.138;14.332;2023-06-26T07:00:24;8.07;;;5.63;;
75716;SDS011;64333;50.138;14.332;2023-06-26T07:02:49;7.05;;;6.30;;
75716;SDS011;64333;50.138;14.332;2023-06-26T07:05:15;7.15;;;6.07;;
75716;SDS011;64333;50.138;14.332;2023-06-26T07:07:41;6.38;;;5.78;;
75716;SDS011;64333;50.138;14.332;2023-06-26T07:10:10;7.72;;;6.43;;
75716;SDS011;64333;50.138;14.332;2023-06-26T07:12:37;6.85;;;5.18;;
75716;SDS011;64333;50.138;14.332;2023-06-26T07:15:03;8.57;;;5.93;;
75716;SDS011;64333;50.138;14.332;2023-06-26T07:17:30;7.38;;;5.70;;
75716;SDS011;64333;50.138;14.332;2023-06-26T07:19:56;5.97;;;5.38;;
75716;SDS011;64333;50.138;14.332;2023-06-26T07:22:22;6.40;;;5.45;;
75716;SDS011;64333;50.138;14.332;2023-06-26T07:24:48;6.10;;;5.50;;
75716;SDS011;64333;50.138;14.332;2023-06-26T07:27:17;7.70;;;6.28;;
75716;SDS011;64333;50.138;14.332;2023-06-26T07:29:44;6.93;;;5.50;;
75716;SDS011;64333;50.138;14.332;2023-06-26T07:32:09;7.00;;;5.97;;
75716;SDS011;64333;50.138;14.332;2023-06-26T07:34:35;7.63;;;5.45;;
75716;SDS011;64333;50.138;14.332;2023-06-26T07:37:00;6.20;;;5.40;;
75716;SDS011;64333;50.138;14.332;2023-06-26T07:39:26;6.30;;;5.57;;
75716;SDS011;64333;50.138;14.332;2023-06-26T07:41:51;7.53;;;5.63;;
75716;SDS011;64333;50.138;14.332;2023-06-26T07:44:17;5.97;;;5.20;;
75716;SDS011;64333;50.138;14.332;2023-06-26T07:46:43;9.82;;;4.93;;
75716;SDS011;64333;50.138;14.332;2023-06-26T07:49:10;5.90;;;5.05;;
75716;SDS011;64333;50.138;14.332;2023-06-26T07:51:35;5.13;;;4.38;;
75716;SDS011;64333;50.138;14.332;2023-06-26T07:54:01;6.80;;;4.60;;
75716;SDS011;64333;50.138;14.332;2023-06-26T07:56:26;6.20;;;4.93;;
75716;SDS011;64333;50.138;14.332;2023-06-26T07:58:51;6.47;;;4.93;;
75716;SDS011;64333;50.138;14.332;2023-06-26T08:01:17;6.03;;;4.70;;
75716;SDS011;64333;50.138;14.332;2023-06-26T08:03:43;4.95;;;4.43;;
75716;SDS011;64333;50.138;14.332;2023-06-26T08:06:08;5.80;;;4.80;;
75716;SDS011;64333;50.138;14.332;2023-06-26T08:08:34;4.80;;;4.30;;
75716;SDS011;64333;50.138;14.332;2023-06-26T08:10:59;4.72;;;4.22;;
75716;SDS011;64333;50.138;14.332;2023-06-26T08:13:25;5.57;;;4.55;;
75716;SDS011;64333;50.138;14.332;2023-06-26T08:15:50;4.80;;;4.28;;
75716;SDS011;64333;50.138;14.332;2023-06-26T08:18:15;5.43;;;4.38;;
75716;SDS011;64333;50.138;14.332;2023-06-26T08:20:41;6.25;;;4.55;;
75716;SDS011;64333;50.138;14.332;2023-06-26T08:23:07;6.25;;;4.10;;
75716;SDS011;64333;50.138;14.332;2023-06-26T08:25:32;5.65;;;5.05;;
75716;SDS011;64333;50.138;14.332;2023-06-26T08:27:58;5.07;;;4.57;;
75716;SDS011;64333;50.138;14.332;2023-06-26T08:30:24;6.20;;;4.45;;
75716;SDS011;64333;50.138;14.332;2023-06-26T08:32:53;6.40;;;5.05;;
75716;SDS011;64333;50.138;14.332;2023-06-26T08:35:21;5.20;;;4.70;;
75716;SDS011;64333;50.138;14.332;2023-06-26T08:37:47;5.85;;;4.38;;
75716;SDS011;64333;50.138;14.332;2023-06-26T08:40:12;6.05;;;4.45;;
75716;SDS011;64333;50.138;14.332;2023-06-26T08:42:41;5.00;;;4.32;;
75716;SDS011;64333;50.138;14.332;2023-06-26T08:45:07;6.15;;;4.75;;
75716;SDS011;64333;50.138;14.332;2023-06-26T08:47:32;5.50;;;4.93;;
75716;SDS011;64333;50.138;14.332;2023-06-26T08:52:56;5.43;;;4.93;;
75716;SDS011;64333;50.138;14.332;2023-06-26T08:55:29;5.60;;;5.00;;
75716;SDS011;64333;50.138;14.332;2023-06-26T08:57:58;5.22;;;4.57;;
75716;SDS011;64333;50.138;14.332;2023-06-26T09:00:24;4.80;;;4.40;;
75716;SDS011;64333;50.138;14.332;2023-06-26T09:02:50;6.05;;;4.78;;
75716;SDS011;64333;50.138;14.332;2023-06-26T09:05:15;5.78;;;4.80;;
75716;SDS011;64333;50.138;14.332;2023-06-26T09:07:41;5.15;;;4.65;;
75716;SDS011;64333;50.138;14.332;2023-06-26T09:10:07;5.15;;;4.65;;
75716;SDS011;64333;50.138;14.332;2023-06-26T09:12:33;6.47;;;4.82;;
75716;SDS011;64333;50.138;14.332;2023-06-26T09:15:00;6.95;;;5.00;;
75716;SDS011;64333;50.138;14.332;2023-06-26T09:17:32;5.45;;;4.95;;
75716;SDS011;64333;50.138;14.332;2023-06-26T09:20:03;5.47;;;4.85;;
75716;SDS011;64333;50.138;14.332;2023-06-26T09:22:29;5.80;;;4.53;;
75716;SDS011;64333;50.138;14.332;2023-06-26T09:27:23;5.07;;;4.57;;
75716;SDS011;64333;50.138;14.332;2023-06-26T09:29:49;5.38;;;4.72;;
75716;SDS011;64333;50.138;14.332;2023-06-26T09:32:15;5.75;;;4.55;;
75716;SDS011;64333;50.138;14.332;2023-06-26T09:34:41;6.90;;;5.13;;
75716;SDS011;64333;50.138;14.332;2023-06-26T09:37:13;5.63;;;5.07;;
75716;SDS011;64333;50.138;14.332;2023-06-26T09:39:39;5.43;;;4.93;;
75716;SDS011;64333;50.138;14.332;2023-06-26T09:42:04;5.95;;;4.60;;
75716;SDS011;64333;50.138;14.332;2023-06-26T09:44:32;5.75;;;5.22;;
75716;SDS011;64333;50.138;14.332;2023-06-26T09:46:58;5.55;;;5.05;;
75716;SDS011;64333;50.138;14.332;2023-06-26T09:49:27;5.53;;;5.03;;
75716;SDS011;64333;50.138;14.332;2023-06-26T09:51:52;5.60;;;5.00;;
75716;SDS011;64333;50.138;14.332;2023-06-26T09:54:18;5.38;;;4.88;;
75716;SDS011;64333;50.138;14.332;2023-06-26T09:56:47;5.15;;;4.75;;
75716;SDS011;64333;50.138;14.332;2023-06-26T09:59:12;5.45;;;4.95;;
75716;SDS011;64333;50.138;14.332;2023-06-26T10:01:43;5.90;;;4.75;;
75716;SDS011;64333;50.138;14.332;2023-06-26T10:04:11;5.70;;;4.93;;
75716;SDS011;64333;50.138;14.332;2023-06-26T10:06:37;6.10;;;5.47;;
75716;SDS011;64333;50.138;14.332;2023-06-26T10:09:06;6.15;;;5.43;;
75716;SDS011;64333;50.138;14.332;2023-06-26T10:11:34;6.47;;;5.82;;
75716;SDS011;64333;50.138;14.332;2023-06-26T10:14:31;6.40;;;5.07;;
75716;SDS011;64333;50.138;14.332;2023-06-26T10:17:01;5.60;;;5.10;;
75716;SDS011;64333;50.138;14.332;2023-06-26T10:19:33;5.30;;;4.80;;
75716;SDS011;64333;50.138;14.332;2023-06-26T10:22:01;5.32;;;4.75;;
75716;SDS011;64333;50.138;14.332;2023-06-26T10:24:29;5.43;;;4.93;;
75716;SDS011;64333;50.138;14.332;2023-06-26T10:27:19;7.45;;;4.93;;
75716;SDS011;64333;50.138;14.332;2023-06-26T10:29:46;5.35;;;4.88;;
75716;SDS011;64333;50.138;14.332;2023-06-26T10:32:14;6.60;;;5.68;;
75716;SDS011;64333;50.138;14.332;2023-06-26T10:34:44;5.55;;;4.97;;
75716;SDS011;64333;50.138;14.332;2023-06-26T10:39:49;5.70;;;4.95;;
75716;SDS011;64333;50.138;14.332;2023-06-26T10:42:42;5.35;;;4.85;;
75716;SDS011;64333;50.138;14.332;2023-06-26T10:47:37;5.85;;;5.25;;
75716;SDS011;64333;50.138;14.332;2023-06-26T10:55:56;5.90;;;5.40;;
75716;SDS011;64333;50.138;14.332;2023-06-26T11:06:26;5.10;;;4.70;;
75716;SDS011;64333;50.138;14.332;2023-06-26T11:11:19;5.75;;;5.25;;
75716;SDS011;64333;50.138;14.332;2023-06-26T11:13:46;4.88;;;4.32;;
75716;SDS011;64333;50.138;14.332;2023-06-26T11:16:12;5.47;;;4.97;;
75716;SDS011;64333;50.138;14.332;2023-06-26T11:18:39;5.20;;;4.70;;
75716;SDS011;64333;50.138;14.332;2023-06-26T11:21:08;5.60;;;5.10;;
75716;SDS011;64333;50.138;14.332;2023-06-26T11:23:36;5.47;;;4.93;;
75716;SDS011;64333;50.138;14.332;2023-06-26T11:26:15;5.97;;;5.45;;
75716;SDS011;64333;50.138;14.332;2023-06-26T11:28:50;6.05;;;5.45;;
75716;SDS011;64333;50.138;14.332;2023-06-26T11:31:32;5.85;;;4.97;;
75716;SDS011;64333;50.138;14.332;2023-06-26T11:34:00;5.85;;;5.35;;
75716;SDS011;64333;50.138;14.332;2023-06-26T11:36:28;6.00;;;5.40;;
75716;SDS011;64333;50.138;14.332;2023-06-26T11:38:56;6.00;;;5.40;;
75716;SDS011;64333;50.138;14.332;2023-06-26T11:41:29;6.80;;;5.20;;
75716;SDS011;64333;50.138;14.332;2023-06-26T11:43:55;5.68;;;5.00;;
75716;SDS011;64333;50.138;14.332;2023-06-26T11:46:24;5.93;;;5.20;;
75716;SDS011;64333;50.138;14.332;2023-06-26T11:48:50;5.53;;;5.03;;
75716;SDS011;64333;50.138;14.332;2023-06-26T11:51:15;5.20;;;4.70;;
75716;SDS011;64333;50.138;14.332;2023-06-26T11:53:41;5.65;;;5.15;;
75716;SDS011;64333;50.138;14.332;2023-06-26T11:56:09;5.97;;;5.45;;
75716;SDS011;64333;50.138;14.332;2023-06-26T11:58:35;5.60;;;5.10;;
75716;SDS011;64333;50.138;14.332;2023-06-26T12:01:01;5.72;;;5.22;;
75716;SDS011;64333;50.138;14.332;2023-06-26T12:03:28;4.97;;;4.57;;
75716;SDS011;64333;50.138;14.332;2023-06-26T12:05:55;5.78;;;5.22;;
75716;SDS011;64333;50.138;14.332;2023-06-26T12:08:21;5.60;;;5.20;;
75716;SDS011;64333;50.138;14.332;2023-06-26T12:10:46;7.57;;;5.10;;
75716;SDS011;64333;50.138;14.332;2023-06-26T12:13:12;5.60;;;5.10;;
75716;SDS011;64333;50.138;14.332;2023-06-26T12:15:38;6.50;;;5.80;;
75716;SDS011;64333;50.138;14.332;2023-06-26T12:18:09;5.20;;;4.72;;
75716;SDS011;64333;50.138;14.332;2023-06-26T12:20:39;5.68;;;5.25;;
75716;SDS011;64333;50.138;14.332;2023-06-26T12:23:11;5.80;;;5.40;;
75716;SDS011;64333;50.138;14.332;2023-06-26T12:25:37;5.60;;;5.20;;
75716;SDS011;64333;50.138;14.332;2023-06-26T12:28:03;5.78;;;5.32;;
75716;SDS011;64333;50.138;14.332;2023-06-26T12:30:28;6.22;;;5.20;;
75716;SDS011;64333;50.138;14.332;2023-06-26T12:32:54;6.28;;;5.55;;
75716;SDS011;64333;50.138;14.332;2023-06-26T12:35:19;6.18;;;5.68;;
75716;SDS011;64333;50.138;14.332;2023-06-26T12:37:45;6.85;;;6.15;;
75716;SDS011;64333;50.138;14.332;2023-06-26T12:40:17;5.75;;;5.35;;
75716;SDS011;64333;50.138;14.332;2023-06-26T12:42:44;6.35;;;5.82;;
75716;SDS011;64333;50.138;14.332;2023-06-26T12:45:11;6.03;;;5.63;;
75716;SDS011;64333;50.138;14.332;2023-06-26T12:47:37;6.40;;;5.75;;
75716;SDS011;64333;50.138;14.332;2023-06-26T12:50:05;7.10;;;6.32;;
75716;SDS011;64333;50.138;14.332;2023-06-26T12:52:31;6.55;;;5.93;;
75716;SDS011;64333;50.138;14.332;2023-06-26T12:54:56;6.88;;;5.50;;
75716;SDS011;64333;50.138;14.332;2023-06-26T12:57:22;6.60;;;5.82;;
75716;SDS011;64333;50.138;14.332;2023-06-26T12:59:48;6.30;;;5.80;;
75716;SDS011;64333;50.138;14.332;2023-06-26T13:02:13;5.95;;;5.43;;
75716;SDS011;64333;50.138;14.332;2023-06-26T13:04:39;6.70;;;6.10;;
75716;SDS011;64333;50.138;14.332;2023-06-26T13:07:05;6.30;;;5.80;;
75716;SDS011;64333;50.138;14.332;2023-06-26T13:09:34;6.40;;;5.90;;
75716;SDS011;64333;50.138;14.332;2023-06-26T13:12:00;6.20;;;5.70;;
75716;SDS011;64333;50.138;14.332;2023-06-26T13:14:26;6.38;;;5.88;;
75716;SDS011;64333;50.138;14.332;2023-06-26T13:16:52;6.93;;;6.20;;
75716;SDS011;64333;50.138;14.332;2023-06-26T13:19:17;6.30;;;5.80;;
75716;SDS011;64333;50.138;14.332;2023-06-26T13:21:42;6.78;;;6.18;;
75716;SDS011;64333;50.138;14.332;2023-06-26T13:24:08;6.43;;;5.93;;
75716;SDS011;64333;50.138;14.332;2023-06-26T13:26:34;6.57;;;5.85;;
75716;SDS011;64333;50.138;14.332;2023-06-26T13:28:59;7.10;;;5.75;;
75716;SDS011;64333;50.138;14.332;2023-06-26T13:31:25;5.93;;;5.45;;
75716;SDS011;64333;50.138;14.332;2023-06-26T13:33:50;6.22;;;5.72;;
75716;SDS011;64333;50.138;14.332;2023-06-26T13:36:18;6.97;;;6.22;;
75716;SDS011;64333;50.138;14.332;2023-06-26T13:38:44;6.82;;;6.20;;
75716;SDS011;64333;50.138;14.332;2023-06-26T13:41:10;6.45;;;5.95;;
75716;SDS011;64333;50.138;14.332;2023-06-26T13:43:35;6.72;;;6.13;;
75716;SDS011;64333;50.138;14.332;2023-06-26T13:46:01;6.72;;;6.13;;
75716;SDS011;64333;50.138;14.332;2023-06-26T13:48:28;6.40;;;5.90;;
75716;SDS011;64333;50.138;14.332;2023-06-26T13:50:53;5.97;;;5.57;;
75716;SDS011;64333;50.138;14.332;2023-06-26T13:53:19;6.60;;;6.00;;
75716;SDS011;64333;50.138;14.332;2023-06-26T13:55:44;6.93;;;6.25;;
75716;SDS011;64333;50.138;14.332;2023-06-26T13:58:10;6.47;;;5.97;;
75716;SDS011;64333;50.138;14.332;2023-06-26T14:00:36;6.32;;;5.82;;
75716;SDS011;64333;50.138;14.332;2023-06-26T14:03:02;6.60;;;5.90;;
75716;SDS011;64333;50.138;14.332;2023-06-26T14:05:29;6.85;;;6.25;;
75716;SDS011;64333;50.138;14.332;2023-06-26T14:07:55;6.20;;;5.60;;
75716;SDS011;64333;50.138;14.332;2023-06-26T14:10:20;7.07;;;6.47;;
75716;SDS011;64333;50.138;14.332;2023-06-26T14:12:46;6.63;;;6.03;;
75716;SDS011;64333;50.138;14.332;2023-06-26T14:15:12;7.03;;;6.50;;
75716;SDS011;64333;50.138;14.332;2023-06-26T14:17:37;6.13;;;5.63;;
75716;SDS011;64333;50.138;14.332;2023-06-26T14:20:05;6.00;;;5.50;;
75716;SDS011;64333;50.138;14.332;2023-06-26T14:22:34;6.20;;;5.65;;
75716;SDS011;64333;50.138;14.332;2023-06-26T14:24:59;5.90;;;5.28;;
75716;SDS011;64333;50.138;14.332;2023-06-26T14:27:24;5.72;;;5.32;;
75716;SDS011;64333;50.138;14.332;2023-06-26T14:29:49;5.95;;;5.45;;
75716;SDS011;64333;50.138;14.332;2023-06-26T14:32:15;5.85;;;5.32;;
75716;SDS011;64333;50.138;14.332;2023-06-26T14:34:43;5.97;;;5.47;;
75716;SDS011;64333;50.138;14.332;2023-06-26T14:37:08;6.22;;;5.63;;
75716;SDS011;64333;50.138;14.332;2023-06-26T14:39:34;6.25;;;5.72;;
75716;SDS011;64333;50.138;14.332;2023-06-26T14:41:59;5.68;;;5.10;;
75716;SDS011;64333;50.138;14.332;2023-06-26T14:44:25;6.25;;;5.65;;
75716;SDS011;64333;50.138;14.332;2023-06-26T14:46:50;6.70;;;5.65;;
75716;SDS011;64333;50.138;14.332;2023-06-26T14:49:15;6.03;;;5.15;;
75716;SDS011;64333;50.138;14.332;2023-06-26T14:51:41;6.20;;;5.10;;
75716;SDS011;64333;50.138;14.332;2023-06-26T14:54:06;5.97;;;5.47;;
75716;SDS011;64333;50.138;14.332;2023-06-26T14:56:32;5.60;;;5.10;;
75716;SDS011;64333;50.138;14.332;2023-06-26T14:58:57;5.93;;;5.43;;